Time;durP1;ratioP1;P1;durP2;ratioP2;P2;SDS_P1;SDS_P2;PMS_P1;PMS_P2;Temp;Humidity;BMP_temperature;BMP_pressure;BME280_temperature;BME280_humidity;BME280_pressure;Samples;Min_cycle;Max_cycle;Signal;HPM_P1;HPM_P2
2021/06/13 00:00:12;;;;;;;24.08;20.60;;;16.90;73.10;;;;;;6123738;23;20009;-72
2021/06/13 00:02:38;;;;;;;;;;;16.90;73.20;;;;;;6123261;23;20426;-72
2021/06/13 00:05:07;;;;;;;21.90;18.58;;;16.80;73.20;;;;;;6123469;23;20328;-71
2021/06/13 00:07:33;;;;;;;22.20;18.73;;;16.80;73.10;;;;;;6123455;23;20009;-71
2021/06/13 00:10:00;;;;;;;21.25;18.15;;;16.80;73.10;;;;;;6121637;23;20045;-71
2021/06/13 00:12:26;;;;;;;20.30;17.77;;;16.80;73.10;;;;;;6123413;23;20073;-71
2021/06/13 00:14:53;;;;;;;21.77;19.52;;;16.80;73.10;;;;;;6122366;23;20060;-71
2021/06/13 00:17:20;;;;;;;21.75;19.45;;;16.80;73.20;;;;;;6123626;23;20021;-71
2021/06/13 00:19:46;;;;;;;24.30;20.48;;;16.80;73.20;;;;;;6122354;23;20426;-72
2021/06/13 00:22:13;;;;;;;22.33;20.02;;;16.80;73.30;;;;;;6123227;23;20341;-72
2021/06/13 00:24:39;;;;;;;25.40;21.60;;;16.80;73.30;;;;;;6123101;23;20006;-71
2021/06/13 00:27:06;;;;;;;23.33;20.83;;;16.80;73.40;;;;;;6123260;23;20005;-72
2021/06/13 00:29:32;;;;;;;24.27;20.60;;;16.70;73.50;;;;;;6123852;23;20054;-72
2021/06/13 00:31:59;;;;;;;23.30;20.80;;;16.70;73.50;;;;;;6122342;23;20017;-72
2021/06/13 00:34:26;;;;;;;24.05;20.80;;;16.70;73.50;;;;;;6124149;23;20290;-71
2021/06/13 00:36:53;;;;;;;23.73;19.58;;;16.70;73.60;;;;;;6122540;23;20080;-72
2021/06/13 00:39:20;;;;;;;23.55;20.10;;;16.70;73.60;;;;;;6123410;23;20002;-72
2021/06/13 00:41:46;;;;;;;25.90;20.63;;;16.70;73.80;;;;;;6122484;23;20002;-74
2021/06/13 00:44:13;;;;;;;22.83;20.42;;;16.70;73.90;;;;;;6122143;23;20456;-71
2021/06/13 00:46:40;;;;;;;22.58;20.08;;;16.70;74.00;;;;;;6122737;23;20430;-73
2021/06/13 00:49:08;;;;;;;20.90;18.70;;;16.70;74.10;;;;;;6121891;23;20010;-71
2021/06/13 00:51:35;;;;;;;23.15;17.80;;;16.70;74.30;;;;;;6123116;23;20002;-71
2021/06/13 00:54:02;;;;;;;22.35;17.98;;;16.60;74.60;;;;;;6121761;23;20085;-72
2021/06/13 00:56:29;;;;;;;22.95;17.83;;;16.70;74.90;;;;;;6122311;23;20345;-72
2021/06/13 00:58:55;;;;;;;24.30;16.63;;;16.70;75.10;;;;;;6122151;23;20017;-72
2021/06/13 01:01:22;;;;;;;23.52;16.95;;;16.70;75.50;;;;;;6122355;23;20020;-72
2021/06/13 01:03:49;;;;;;;21.52;17.35;;;16.70;76.20;;;;;;6122339;23;20006;-72
2021/06/13 01:06:30;;;;;;;23.92;17.63;;;16.70;75.80;;;;;;6121954;23;20808;-72
2021/06/13 01:09:05;;;;;;;25.23;18.80;;;16.70;75.90;;;;;;6121559;23;20379;-72
2021/06/13 01:11:53;;;;;;;24.52;18.27;;;16.70;76.00;;;;;;6121625;23;20392;-72
2021/06/13 01:14:23;;;;;;;23.77;18.52;;;16.70;76.00;;;;;;6122598;23;20442;-72
2021/06/13 01:17:08;;;;;;;25.25;17.48;;;16.70;76.10;;;;;;6123775;23;20002;-72
2021/06/13 01:19:47;;;;;;;28.50;18.83;;;16.80;76.20;;;;;;6121650;23;20123;-72
2021/06/13 01:22:38;;;;;;;26.35;19.23;;;16.80;76.10;;;;;;6122904;23;20006;-71
2021/06/13 01:25:06;;;;;;;31.67;19.63;;;16.80;76.10;;;;;;6122286;23;20002;-72
2021/06/13 01:28:05;;;;;;;27.77;18.83;;;16.80;76.20;;;;;;6122070;23;19990;-72
2021/06/13 01:30:33;;;;;;;28.77;18.92;;;16.80;76.10;;;;;;6100558;23;20053;-71
2021/06/13 01:33:07;;;;;;;26.55;16.65;;;16.80;76.10;;;;;;6121780;23;19998;-71
2021/06/13 01:35:35;;;;;;;24.48;16.63;;;16.80;76.10;;;;;;6123002;23;20008;-72
2021/06/13 01:38:03;;;;;;;24.98;16.13;;;16.80;76.10;;;;;;6122188;23;20338;-71
2021/06/13 01:40:32;;;;;;;25.80;16.30;;;16.80;76.10;;;;;;6122071;23;20002;-73
2021/06/13 01:43:00;;;;;;;22.02;15.02;;;16.80;76.20;;;;;;6122890;23;20006;-72
2021/06/13 01:45:33;;;;;;;20.35;16.35;;;16.80;76.20;;;;;;6121391;23;20577;-73
2021/06/13 01:48:00;;;;;;;22.35;15.15;;;16.80;76.20;;;;;;6123060;23;20002;-73
2021/06/13 01:50:31;;;;;;;20.15;14.98;;;16.80;76.20;;;;;;6122129;23;19998;-72
2021/06/13 01:53:01;;;;;;;21.05;14.32;;;16.70;76.80;;;;;;6122737;23;20044;-71
2021/06/13 01:55:28;;;;;;;20.42;14.98;;;16.80;76.20;;;;;;6122180;23;20077;-72
2021/06/13 01:57:56;;;;;;;18.95;15.07;;;16.70;76.10;;;;;;6121844;23;20010;-71
2021/06/13 02:00:23;;;;;;;21.67;14.93;;;16.70;76.80;;;;;;6123044;23;20442;-73
2021/06/13 02:02:52;;;;;;;21.83;16.02;;;16.70;76.00;;;;;;6120536;23;20038;-72
2021/06/13 02:05:23;;;;;;;20.90;16.40;;;16.70;76.00;;;;;;6122559;23;20264;-72
2021/06/13 02:07:51;;;;;;;22.05;18.05;;;16.70;75.90;;;;;;6121145;23;20425;-71
2021/06/13 02:10:20;;;;;;;23.52;17.88;;;16.70;75.90;;;;;;6122494;23;20002;-72
2021/06/13 02:12:48;;;;;;;24.17;18.45;;;16.70;75.90;;;;;;6121961;23;20008;-72
2021/06/13 02:15:22;;;;;;;23.80;18.92;;;16.70;75.90;;;;;;6121370;23;20009;-71
2021/06/13 02:17:49;;;;;;;25.75;18.33;;;16.70;75.90;;;;;;6120199;23;20006;-72
2021/06/13 02:20:21;;;;;;;22.13;18.48;;;16.70;75.90;;;;;;6121393;23;20006;-73
2021/06/13 02:22:48;;;;;;;22.63;17.05;;;16.70;75.90;;;;;;6122338;23;20002;-73
2021/06/13 02:25:19;;;;;;;24.88;19.58;;;16.70;75.90;;;;;;6121919;23;20422;-72
2021/06/13 02:27:46;;;;;;;24.95;19.00;;;16.60;75.90;;;;;;6122242;23;20422;-72
2021/06/13 02:30:15;;;;;;;20.08;16.98;;;16.60;75.90;;;;;;6122482;23;20009;-72
2021/06/13 02:32:43;;;;;;;21.58;16.13;;;16.60;75.90;;;;;;6119576;23;20038;-72
2021/06/13 02:35:11;;;;;;;23.70;18.48;;;16.70;75.90;;;;;;6121137;23;20093;-72
2021/06/13 02:37:41;;;;;;;22.00;17.15;;;16.60;75.90;;;;;;6121139;23;20014;-71
2021/06/13 02:40:10;;;;;;;23.08;17.50;;;16.60;75.90;;;;;;6122456;23;20357;-72
2021/06/13 02:42:37;;;;;;;23.05;18.27;;;16.60;75.90;;;;;;6121107;23;20044;-72
2021/06/13 02:45:15;;;;;;;23.00;18.70;;;16.70;75.90;;;;;;6122788;23;20489;-73
2021/06/13 02:47:42;;;;;;;25.60;18.17;;;16.60;75.80;;;;;;6122296;23;20065;-74
2021/06/13 02:50:11;;;;;;;25.17;18.90;;;16.60;75.80;;;;;;6119466;23;20319;-73
2021/06/13 02:52:51;;;;;;;21.00;16.70;;;16.60;75.80;;;;;;6120548;23;20010;-73
2021/06/13 02:55:24;;;;;;;23.15;16.83;;;16.60;75.80;;;;;;6121106;23;20009;-72
2021/06/13 02:58:03;;;;;;;19.45;15.20;;;16.60;75.90;;;;;;6122155;23;20493;-72
2021/06/13 03:00:31;;;;;;;17.65;14.73;;;16.60;75.90;;;;;;6121985;23;19998;-72
2021/06/13 03:02:59;;;;;;;18.02;13.93;;;16.60;75.90;;;;;;6120871;23;20085;-73
2021/06/13 03:05:27;;;;;;;18.55;12.52;;;16.60;75.90;;;;;;6122906;23;20030;-72
2021/06/13 03:07:55;;;;;;;16.88;12.73;;;16.60;76.00;;;;;;6120833;23;20441;-72
2021/06/13 03:10:22;;;;;;;13.43;11.95;;;16.60;76.10;;;;;;6122274;23;20002;-71
2021/06/13 03:12:54;;;;;;;14.13;10.30;;;16.60;76.20;;;;;;6120968;23;20009;-72
2021/06/13 03:15:21;;;;;;;10.57;9.45;;;16.60;76.30;;;;;;6122059;23;20014;-72
2021/06/13 03:17:48;;;;;;;11.35;9.18;;;16.60;76.40;;;;;;6121774;23;20462;-72
2021/06/13 03:20:14;;;;;;;12.15;9.57;;;16.60;76.50;;;;;;6121281;23;20025;-71
2021/06/13 03:22:41;;;;;;;10.73;9.20;;;16.50;76.40;;;;;;6122141;23;20008;-72
2021/06/13 03:25:09;;;;;;;12.48;8.52;;;16.50;76.50;;;;;;6121391;23;20393;-71
2021/06/13 03:27:40;;;;;;;8.75;7.82;;;16.60;76.70;;;;;;6122639;23;20068;-72
2021/06/13 03:30:08;;;;;;;9.13;7.88;;;16.60;76.70;;;;;;6123319;23;20077;-73
2021/06/13 03:32:35;;;;;;;8.98;6.82;;;16.50;76.70;;;;;;6124116;23;20330;-72
2021/06/13 03:35:02;;;;;;;9.23;7.20;;;16.50;76.80;;;;;;6122157;23;20010;-72
2021/06/13 03:37:29;;;;;;;8.20;7.40;;;16.60;76.90;;;;;;6122950;23;20115;-71
2021/06/13 03:39:57;;;;;;;10.80;6.75;;;16.50;76.90;;;;;;6123616;23;20009;-72
2021/06/13 03:42:24;;;;;;;7.75;6.40;;;16.50;77.00;;;;;;6121894;23;20016;-75
2021/06/13 03:44:52;;;;;;;7.57;6.45;;;16.50;77.10;;;;;;6123832;23;20493;-72
2021/06/13 03:47:19;;;;;;;7.15;6.43;;;16.60;77.20;;;;;;6122781;23;20002;-72
2021/06/13 03:49:49;;;;;;;8.25;6.47;;;16.50;77.10;;;;;;6123958;23;20036;-73
2021/06/13 03:52:18;;;;;;;7.90;6.05;;;16.50;77.10;;;;;;6123765;23;19998;-72
2021/06/13 03:54:45;;;;;;;6.97;6.28;;;16.50;77.20;;;;;;6123277;23;20069;-71
2021/06/13 03:57:13;;;;;;;9.20;6.53;;;16.50;77.20;;;;;;6124363;23;20006;-71
2021/06/13 03:59:42;;;;;;;6.82;6.13;;;16.50;77.20;;;;;;6122322;23;20010;-73
2021/06/13 04:02:10;;;;;;;14.82;12.25;;;16.50;77.20;;;;;;6123680;23;20077;-72
2021/06/13 04:04:55;;;;;;;14.13;11.38;;;16.50;77.20;;;;;;6121508;23;20034;-71
2021/06/13 04:07:22;;;;;;;11.57;9.27;;;16.50;77.30;;;;;;6123362;23;20040;-72
2021/06/13 04:09:49;;;;;;;9.20;7.57;;;16.50;77.30;;;;;;6123192;23;20044;-74
2021/06/13 04:12:19;;;;;;;8.10;6.38;;;16.50;77.30;;;;;;6122733;23;20005;-72
2021/06/13 04:14:48;;;;;;;7.65;6.00;;;16.50;77.30;;;;;;6123378;23;19994;-72
2021/06/13 04:17:19;;;;;;;6.57;5.47;;;16.50;77.40;;;;;;6122369;23;20009;-72
2021/06/13 04:19:49;;;;;;;6.68;5.35;;;16.50;77.50;;;;;;6123218;23;20002;-72
2021/06/13 04:22:18;;;;;;;6.18;5.00;;;16.50;77.60;;;;;;6122677;23;20053;-75
2021/06/13 04:24:46;;;;;;;4.82;4.32;;;16.50;77.60;;;;;;6123173;23;20002;-74
2021/06/13 04:27:14;;;;;;;6.43;5.13;;;16.50;77.70;;;;;;6123348;23;20002;-75
2021/06/13 04:29:40;;;;;;;6.13;5.25;;;16.50;77.70;;;;;;6122786;23;19998;-75
2021/06/13 04:32:10;;;;;;;8.57;4.03;;;16.50;77.70;;;;;;6123557;23;20494;-75
2021/06/13 04:34:38;;;;;;;4.25;3.67;;;16.50;77.80;;;;;;6122029;23;20013;-75
2021/06/13 04:37:06;;;;;;;6.55;3.55;;;16.50;77.90;;;;;;6123050;23;20005;-74
2021/06/13 04:39:33;;;;;;;4.57;4.18;;;16.50;77.90;;;;;;6122308;23;20418;-75
2021/06/13 04:42:02;;;;;;;6.22;4.32;;;16.50;78.00;;;;;;6123118;23;20026;-72
2021/06/13 04:44:29;;;;;;;5.18;3.85;;;16.50;78.10;;;;;;6122932;23;19998;-74
2021/06/13 04:46:56;;;;;;;4.68;4.28;;;16.50;78.10;;;;;;6122331;23;20443;-74
2021/06/13 04:49:23;;;;;;;5.53;4.43;;;16.50;78.10;;;;;;6123154;23;20049;-74
2021/06/13 04:51:57;;;;;;;4.60;4.20;;;16.50;78.10;;;;;;6120047;23;20002;-75
2021/06/13 04:54:40;;;;;;;4.60;4.20;;;16.50;78.20;;;;;;6121765;23;20006;-74
2021/06/13 04:57:13;;;;;;;5.32;4.43;;;16.50;78.70;;;;;;6096342;23;20374;-74
2021/06/13 04:59:39;;;;;;;4.93;4.40;;;16.50;78.10;;;;;;6120605;23;20097;-73
2021/06/13 05:02:06;;;;;;;7.78;6.15;;;16.50;78.10;;;;;;6123174;23;20005;-75
2021/06/13 05:04:32;;;;;;;10.70;9.63;;;16.50;78.00;;;;;;6119433;23;20085;-75
2021/06/13 05:07:03;;;;;;;10.98;9.25;;;16.50;77.90;;;;;;6122188;23;20002;-76
2021/06/13 05:09:31;;;;;;;12.95;10.25;;;16.40;78.30;;;;;;6120806;23;20018;-73
2021/06/13 05:11:57;;;;;;;9.27;8.38;;;16.40;78.40;;;;;;6121578;23;20060;-74
2021/06/13 05:14:25;;;;;;;8.60;7.70;;;16.40;78.40;;;;;;6121828;23;20493;-73
2021/06/13 05:16:52;;;;;;;7.90;7.10;;;16.40;78.30;;;;;;6121770;23;19998;-73
2021/06/13 05:19:18;;;;;;;7.10;6.32;;;16.40;78.20;;;;;;6122345;23;20054;-76
2021/06/13 05:21:45;;;;;;;6.93;6.20;;;16.40;78.10;;;;;;6120584;23;20746;-75
2021/06/13 05:24:12;;;;;;;6.47;5.05;;;16.40;78.00;;;;;;6121423;23;20006;-74
2021/06/13 05:26:38;;;;;;;7.50;6.18;;;16.40;77.90;;;;;;6120467;23;20002;-75
2021/06/13 05:29:06;;;;;;;6.75;4.50;;;16.50;78.00;;;;;;6120046;23;20548;-75
2021/06/13 05:31:32;;;;;;;6.18;5.10;;;16.40;77.80;;;;;;6120626;23;20045;-75
2021/06/13 05:33:59;;;;;;;8.60;4.80;;;16.40;77.80;;;;;;6121391;23;20020;-74
2021/06/13 05:36:25;;;;;;;5.38;4.40;;;16.40;77.70;;;;;;6121883;23;20375;-75
2021/06/13 05:38:52;;;;;;;3.85;3.47;;;16.40;77.60;;;;;;6118847;23;20025;-74
2021/06/13 05:41:18;;;;;;;9.05;4.32;;;16.40;77.60;;;;;;6118092;23;20006;-75
2021/06/13 05:43:45;;;;;;;4.75;3.40;;;16.40;77.60;;;;;;6116563;23;20053;-75
2021/06/13 05:46:12;;;;;;;4.85;4.00;;;16.40;77.60;;;;;;6120619;23;20030;-72
2021/06/13 05:48:38;;;;;;;4.70;3.90;;;16.40;77.60;;;;;;6118808;23;20038;-74
2021/06/13 05:51:06;;;;;;;4.68;3.80;;;16.40;77.60;;;;;;6120800;23;20122;-73
2021/06/13 05:53:33;;;;;;;5.53;3.90;;;16.40;77.60;;;;;;6118897;23;20065;-73
2021/06/13 05:55:59;;;;;;;4.47;4.03;;;16.40;77.50;;;;;;6116564;23;20450;-73
2021/06/13 05:58:26;;;;;;;4.70;3.67;;;16.40;77.50;;;;;;6117805;23;20498;-73
2021/06/13 06:00:52;;;;;;;4.20;3.30;;;16.40;77.60;;;;;;6115921;23;20009;-73
2021/06/13 06:03:19;;;;;;;7.07;4.30;;;16.40;77.50;;;;;;6118017;23;20013;-72
2021/06/13 06:05:46;;;;;;;4.10;3.70;;;16.40;77.50;;;;;;6116336;23;20009;-72
2021/06/13 06:08:12;;;;;;;6.15;3.97;;;16.40;77.50;;;;;;6117630;23;20014;-76
2021/06/13 06:10:39;;;;;;;4.05;3.65;;;16.40;77.50;;;;;;6117182;23;20037;-72
2021/06/13 06:13:05;;;;;;;4.57;4.05;;;16.40;77.40;;;;;;6117615;23;20010;-78
2021/06/13 06:15:38;;;;;;;6.75;3.70;;;16.40;77.40;;;;;;6118114;23;20707;-77
2021/06/13 06:18:07;;;;;;;5.30;4.28;;;16.40;77.40;;;;;;6116596;23;20428;-77
2021/06/13 06:20:34;;;;;;;6.38;5.30;;;16.40;77.30;;;;;;6118603;23;20354;-73
2021/06/13 06:23:01;;;;;;;9.18;7.65;;;16.40;77.30;;;;;;6115406;23;20044;-74
2021/06/13 06:25:28;;;;;;;7.60;6.47;;;16.30;77.20;;;;;;6117113;23;20085;-76
2021/06/13 06:27:56;;;;;;;7.60;5.72;;;16.40;77.30;;;;;;6117654;23;20028;-76
2021/06/13 06:30:23;;;;;;;8.65;5.20;;;16.40;77.30;;;;;;6116508;23;20016;-76
2021/06/13 06:32:50;;;;;;;5.65;4.32;;;16.40;77.20;;;;;;6119260;23;20002;-75
2021/06/13 06:35:17;;;;;;;6.32;4.85;;;16.40;77.20;;;;;;6116983;23;20013;-80
2021/06/13 06:37:44;;;;;;;7.07;5.03;;;16.40;77.20;;;;;;6118664;23;20028;-74
2021/06/13 06:40:12;;;;;;;5.70;5.03;;;16.40;77.20;;;;;;6118033;23;20026;-78
2021/06/13 06:42:42;;;;;;;7.40;5.15;;;16.40;77.10;;;;;;6122146;23;20010;-76
2021/06/13 06:45:11;;;;;;;4.90;4.40;;;16.40;77.10;;;;;;6120764;23;20520;-79
2021/06/13 06:48:17;;;;;;;7.18;4.45;;;16.40;77.10;;;;;;6119658;23;20005;-80
2021/06/13 06:51:23;;;;;;;6.38;4.63;;;16.40;77.00;;;;;;6121344;23;19998;-76
2021/06/13 06:54:29;;;;;;;8.77;4.20;;;16.40;77.00;;;;;;6119074;23;20665;-74
2021/06/13 06:57:37;;;;;;;6.47;5.63;;;16.40;76.90;;;;;;6120653;23;20013;-75
2021/06/13 07:00:43;;;;;;;7.30;6.03;;;16.40;76.90;;;;;;6120520;23;20018;-78
2021/06/13 07:03:49;;;;;;;7.57;6.78;;;16.50;76.90;;;;;;6121001;23;20080;-77
2021/06/13 07:06:55;;;;;;;7.25;6.38;;;16.40;76.90;;;;;;6122691;23;20005;-77
2021/06/13 07:09:23;;;;;;;6.53;5.85;;;16.40;76.90;;;;;;6122924;23;20024;-75
2021/06/13 07:11:49;;;;;;;5.10;4.60;;;16.40;76.80;;;;;;6123683;23;20092;-76
2021/06/13 07:14:16;;;;;;;6.10;5.05;;;16.40;76.80;;;;;;6119575;23;20009;-76
2021/06/13 07:16:42;;;;;;;8.40;6.63;;;16.40;76.80;;;;;;6123549;23;19997;-77
2021/06/13 07:19:09;;;;;;;11.77;7.93;;;16.50;76.80;;;;;;6122386;23;20065;-75
2021/06/13 07:21:36;;;;;;;9.40;8.13;;;16.50;76.70;;;;;;6123835;23;20002;-74
2021/06/13 07:24:02;;;;;;;10.40;5.13;;;16.50;76.70;;;;;;6123019;23;20006;-75
2021/06/13 07:26:29;;;;;;;7.10;4.80;;;16.50;76.50;;;;;;6123673;23;20319;-72
2021/06/13 07:28:55;;;;;;;7.25;4.65;;;16.50;76.30;;;;;;6123205;23;20002;-78
2021/06/13 07:31:22;;;;;;;4.90;4.25;;;16.40;76.50;;;;;;6121316;23;20090;-77
2021/06/13 07:33:49;;;;;;;5.95;4.78;;;16.40;76.60;;;;;;6123779;23;20002;-76
2021/06/13 07:36:16;;;;;;;9.85;5.57;;;16.50;76.50;;;;;;6123322;23;20009;-73
2021/06/13 07:38:42;;;;;;;6.95;4.93;;;16.40;76.70;;;;;;6122746;23;20018;-72
2021/06/13 07:41:09;;;;;;;8.32;5.28;;;16.40;76.80;;;;;;6122517;23;20073;-74
2021/06/13 07:43:35;;;;;;;8.90;5.30;;;16.50;77.00;;;;;;6123444;23;20009;-75
2021/06/13 07:46:02;;;;;;;6.43;4.65;;;16.50;76.90;;;;;;6123411;23;20009;-80
2021/06/13 07:48:29;;;;;;;6.88;5.35;;;16.50;76.90;;;;;;6124538;23;20002;-78
2021/06/13 07:50:56;;;;;;;6.57;4.47;;;16.50;76.90;;;;;;6122644;23;20002;-73
2021/06/13 07:53:22;;;;;;;7.30;5.13;;;16.50;76.80;;;;;;6120188;23;20029;-76
2021/06/13 07:55:49;;;;;;;4.85;4.30;;;16.50;76.80;;;;;;6123718;23;20015;-72
2021/06/13 07:58:15;;;;;;;8.88;4.97;;;16.50;76.70;;;;;;6121890;23;20090;-77
2021/06/13 08:00:42;;;;;;;6.15;4.80;;;16.50;76.80;;;;;;6122789;23;20086;-78
2021/06/13 08:03:08;;;;;;;7.18;4.85;;;16.60;76.80;;;;;;6122663;23;20467;-73
2021/06/13 08:05:35;;;;;;;4.05;3.63;;;16.60;76.80;;;;;;6123789;23;20002;-71
2021/06/13 08:08:07;;;;;;;4.88;4.43;;;16.70;76.80;;;;;;6123199;23;20014;-72
2021/06/13 08:10:35;;;;;;;5.60;4.60;;;16.70;76.80;;;;;;6122647;23;20003;-72
2021/06/13 08:13:03;;;;;;;9.85;5.13;;;16.70;76.80;;;;;;6123944;23;20084;-74
2021/06/13 08:15:30;;;;;;;8.65;4.80;;;16.80;76.90;;;;;;6122567;23;20008;-79
2021/06/13 08:17:58;;;;;;;8.27;4.88;;;16.80;76.80;;;;;;6123326;23;20041;-76
2021/06/13 08:20:26;;;;;;;7.60;5.03;;;16.80;76.80;;;;;;6123737;23;20081;-83
2021/06/13 08:22:52;;;;;;;5.72;4.57;;;16.90;76.80;;;;;;6122408;23;20010;-80
2021/06/13 08:25:19;;;;;;;6.85;5.03;;;16.90;76.80;;;;;;6123590;23;20001;-83
2021/06/13 08:27:46;;;;;;;6.68;4.53;;;16.90;76.60;;;;;;6123384;23;20005;-81
2021/06/13 08:30:15;;;;;;;5.28;4.78;;;16.90;76.50;;;;;;6124098;23;20006;-83
2021/06/13 08:32:42;;;;;;;6.35;5.10;;;16.90;76.30;;;;;;6122518;23;20326;-83
2021/06/13 08:35:10;;;;;;;5.13;4.63;;;16.90;76.30;;;;;;6124065;23;20005;-83
2021/06/13 08:37:37;;;;;;;5.72;4.75;;;16.90;76.10;;;;;;6122712;23;20018;-82
2021/06/13 08:40:06;;;;;;;6.20;4.88;;;16.90;76.00;;;;;;6123451;23;20002;-82
2021/06/13 08:42:33;;;;;;;5.53;4.80;;;16.90;75.90;;;;;;6123857;23;20001;-79
2021/06/13 08:45:00;;;;;;;5.63;5.13;;;16.90;75.90;;;;;;6122775;23;20004;-83
2021/06/13 08:47:28;;;;;;;5.93;5.03;;;16.90;75.90;;;;;;6123814;23;20029;-74
2021/06/13 08:49:55;;;;;;;5.97;4.97;;;16.90;75.90;;;;;;6122773;23;20002;-84
2021/06/13 08:52:22;;;;;;;7.70;4.82;;;17.00;75.90;;;;;;6123941;23;20069;-82
2021/06/13 08:54:48;;;;;;;6.47;5.07;;;16.90;75.80;;;;;;6122781;23;20006;-82
2021/06/13 08:57:16;;;;;;;7.78;4.85;;;16.90;75.70;;;;;;6124291;23;20002;-82
2021/06/13 08:59:44;;;;;;;5.78;5.13;;;17.00;76.40;;;;;;6122697;23;20009;-81
2021/06/13 09:02:10;;;;;;;6.88;4.35;;;17.00;75.70;;;;;;6122777;23;20010;-79
2021/06/13 09:04:37;;;;;;;6.30;5.43;;;17.00;75.70;;;;;;6123628;23;19998;-81
2021/06/13 09:07:11;;;;;;;7.47;5.10;;;17.00;75.70;;;;;;6122671;23;20028;-82
2021/06/13 09:09:38;;;;;;;5.50;5.00;;;17.00;75.70;;;;;;6122882;23;20438;-76
2021/06/13 09:12:07;;;;;;;5.28;4.80;;;17.10;75.70;;;;;;6121653;23;20002;-81
2021/06/13 09:14:44;;;;;;;6.35;5.07;;;17.10;75.70;;;;;;6123689;23;19998;-84
2021/06/13 09:17:20;;;;;;;6.78;4.32;;;17.10;75.60;;;;;;6123415;23;20060;-84
2021/06/13 09:20:27;;;;;;;6.60;4.90;;;17.20;75.60;;;;;;6122548;23;20493;-83
2021/06/13 09:23:13;;;;;;;4.80;4.25;;;17.20;75.50;;;;;;6005463;23;20008;-79
2021/06/13 09:25:42;;;;;;;7.10;4.18;;;17.20;75.50;;;;;;6118835;23;20013;-82
2021/06/13 09:28:22;;;;;;;5.45;4.82;;;17.30;75.50;;;;;;6122853;23;19998;-83
2021/06/13 09:30:51;;;;;;;6.85;5.18;;;17.30;75.50;;;;;;6123756;23;20422;-83
2021/06/13 09:33:17;;;;;;;7.00;5.32;;;17.30;75.50;;;;;;6122961;23;20009;-84
2021/06/13 09:35:47;;;;;;;5.25;4.65;;;17.30;75.40;;;;;;6123655;23;20002;-83
2021/06/13 09:38:15;;;;;;;6.28;5.28;;;17.30;75.40;;;;;;6122051;23;20017;-84
2021/06/13 09:40:45;;;;;;;6.03;5.15;;;17.30;75.40;;;;;;6122973;23;20033;-83
2021/06/13 09:43:23;;;;;;;5.65;4.70;;;17.40;75.30;;;;;;6123478;23;19998;-83
2021/06/13 09:45:53;;;;;;;6.68;5.00;;;17.40;75.30;;;;;;6120740;23;20356;-84
2021/06/13 09:48:21;;;;;;;6.85;4.55;;;17.40;75.20;;;;;;6122208;23;20307;-84
2021/06/13 09:50:53;;;;;;;6.00;5.10;;;17.40;75.20;;;;;;6120649;23;20048;-82
2021/06/13 09:53:28;;;;;;;7.00;4.63;;;17.40;75.20;;;;;;6123199;23;20033;-82
2021/06/13 09:56:13;;;;;;;7.45;4.68;;;17.50;75.10;;;;;;6122926;23;20002;-81
2021/06/13 09:58:55;;;;;;;4.10;3.70;;;17.50;75.20;;;;;;6122508;23;20021;-85
2021/06/13 10:01:25;;;;;;;7.35;4.60;;;17.50;75.20;;;;;;6123063;23;20016;-78
2021/06/13 10:03:52;;;;;;;5.30;4.80;;;17.50;75.10;;;;;;6122556;23;20458;-84
2021/06/13 10:06:19;;;;;;;7.50;4.50;;;17.60;75.00;;;;;;6122939;23;20490;-78
2021/06/13 10:08:48;;;;;;;7.85;4.88;;;17.60;75.00;;;;;;6122316;23;20438;-84
2021/06/13 10:11:15;;;;;;;7.70;5.05;;;17.70;75.50;;;;;;6122289;23;20430;-72
2021/06/13 10:13:53;;;;;;;6.07;4.43;;;17.70;74.70;;;;;;6123640;23;20450;-84
2021/06/13 10:16:24;;;;;;;5.90;4.57;;;17.70;74.60;;;;;;6120771;23;20334;-84
2021/06/13 10:18:59;;;;;;;5.68;5.05;;;17.80;74.60;;;;;;6123272;23;20475;-82
2021/06/13 10:21:38;;;;;;;6.85;4.60;;;17.90;74.80;;;;;;6122856;23;20005;-82
2021/06/13 10:24:13;;;;;;;7.88;5.03;;;18.00;75.00;;;;;;6123098;23;20029;-76
2021/06/13 10:26:43;;;;;;;;;;;18.00;75.50;;;;;;6123552;23;20325;-84
2021/06/13 10:29:49;;;;;;;5.75;4.70;;;18.10;76.20;;;;;;6121548;23;19918;-75
2021/06/13 10:32:55;;;;;;;6.78;4.68;;;18.20;76.40;;;;;;6120644;23;20010;-77
2021/06/13 10:36:02;;;;;;;7.07;5.47;;;18.30;76.10;;;;;;6120121;23;20057;-77
2021/06/13 10:39:08;;;;;;;5.88;4.80;;;18.30;75.70;;;;;;6121353;23;20049;-72
2021/06/13 10:42:15;;;;;;;5.78;4.40;;;18.40;75.40;;;;;;6119968;23;20006;-75
2021/06/13 10:45:27;;;;;;;30.70;22.50;;;18.50;75.50;;;;;;6122577;23;20434;-73
2021/06/13 10:48:43;;;;;;;12.38;10.68;;;18.50;75.60;;;;;;6120132;23;20016;-75
2021/06/13 10:52:08;;;;;;;8.75;7.63;;;18.60;75.00;;;;;;6121407;23;20077;-70
2021/06/13 10:55:18;;;;;;;8.50;6.85;;;18.60;74.60;;;;;;5980609;23;20200;-75
2021/06/13 10:58:24;;;;;;;8.73;7.82;;;18.70;74.00;;;;;;6003870;23;20035;-74
2021/06/13 11:01:43;;;;;;;8.73;6.57;;;18.70;73.50;;;;;;6120516;23;20005;-74
2021/06/13 11:04:43;;;;;;;6.78;6.03;;;18.80;73.50;;;;;;6120842;23;20488;-74
2021/06/13 11:07:29;;;;;;;8.50;6.00;;;18.90;73.30;;;;;;6122026;23;20468;-73
2021/06/13 11:10:15;;;;;;;8.32;5.68;;;18.90;73.20;;;;;;6122183;23;20022;-75
2021/06/13 11:13:24;;;;;;;7.55;6.75;;;19.00;73.20;;;;;;6119273;23;20358;-74
2021/06/13 11:16:33;;;;;;;9.23;5.75;;;19.10;73.30;;;;;;6119716;23;20002;-72
2021/06/13 11:19:47;;;;;;;7.68;6.50;;;19.10;73.10;;;;;;6122578;23;20050;-72
2021/06/13 11:22:17;;;;;;;10.68;5.95;;;19.20;72.80;;;;;;6119259;23;20065;-73
2021/06/13 11:25:32;;;;;;;8.75;5.63;;;19.20;72.50;;;;;;6120600;23;20472;-75
2021/06/13 11:28:33;;;;;;;6.47;5.22;;;19.20;72.10;;;;;;6121301;23;20013;-72
2021/06/13 11:31:12;;;;;;;8.27;5.43;;;19.30;71.40;;;;;;6121552;23;20002;-74
2021/06/13 11:34:22;;;;;;;8.95;5.18;;;19.30;71.20;;;;;;6121020;23;20069;-74
2021/06/13 11:37:34;;;;;;;95.63;85.10;;;19.40;71.10;;;;;;6121015;23;20018;-77
2021/06/13 11:40:49;;;;;;;31.92;28.50;;;19.40;70.60;;;;;;6118491;23;20094;-73
2021/06/13 11:43:22;;;;;;;22.50;20.17;;;19.50;70.00;;;;;;6121710;23;20085;-74
2021/06/13 11:46:06;;;;;;;22.23;19.92;;;19.60;69.60;;;;;;6122813;23;20032;-74
2021/06/13 11:48:34;;;;;;;18.40;16.20;;;19.60;69.50;;;;;;6121130;23;20002;-73
2021/06/13 11:51:17;;;;;;;17.38;14.73;;;19.70;69.40;;;;;;6122150;23;20389;-72
2021/06/13 11:53:55;;;;;;;14.80;12.57;;;19.70;69.40;;;;;;6121548;23;20006;-72
2021/06/13 11:56:43;;;;;;;15.90;12.65;;;19.70;69.40;;;;;;6122027;23;20013;-75
2021/06/13 11:59:12;;;;;;;17.23;10.82;;;19.80;69.50;;;;;;6123400;23;20017;-73
2021/06/13 12:01:40;;;;;;;13.30;11.23;;;19.80;69.50;;;;;;6122501;23;20029;-75
2021/06/13 12:04:11;;;;;;;11.73;10.55;;;19.80;69.20;;;;;;6122095;23;20028;-74
2021/06/13 12:06:38;;;;;;;9.95;8.90;;;19.80;68.90;;;;;;6123387;23;20010;-72
2021/06/13 12:09:15;;;;;;;9.30;8.10;;;19.80;68.80;;;;;;6121787;23;20030;-73
2021/06/13 12:11:49;;;;;;;10.80;8.77;;;19.80;68.60;;;;;;6119550;23;20002;-73
2021/06/13 12:14:41;;;;;;;10.55;7.28;;;19.80;68.30;;;;;;6120605;23;20017;-72
2021/06/13 12:17:13;;;;;;;10.05;7.13;;;19.90;68.40;;;;;;6121441;23;20023;-75
2021/06/13 12:20:27;;;;;;;7.72;6.93;;;19.90;67.90;;;;;;6116070;23;20389;-76
2021/06/13 12:23:38;;;;;;;10.10;6.60;;;19.80;67.90;;;;;;6116226;23;20081;-77
2021/06/13 12:29:56;;;;;;;6.68;5.97;;;19.80;67.60;;;;;;6120676;23;20016;-76
2021/06/13 12:33:05;;;;;;;6.90;5.55;;;19.90;67.40;;;;;;6120066;23;20080;-75
2021/06/13 12:36:13;;;;;;;12.32;10.65;;;19.90;67.30;;;;;;6115099;23;20009;-76
2021/06/13 12:39:20;;;;;;;10.05;8.77;;;20.00;67.20;;;;;;6119855;23;20010;-76
2021/06/13 12:42:28;;;;;;;10.45;7.70;;;20.00;67.30;;;;;;6117922;23;20089;-76
2021/06/13 12:45:39;;;;;;;9.18;8.20;;;20.10;67.40;;;;;;6118259;23;20009;-77
2021/06/13 12:48:09;;;;;;;7.68;6.95;;;20.10;67.00;;;;;;6118244;23;20378;-75
2021/06/13 12:50:38;;;;;;;10.88;6.82;;;20.10;66.90;;;;;;6121527;23;20002;-75
2021/06/13 12:53:07;;;;;;;7.35;6.43;;;20.10;66.80;;;;;;6121319;23;19998;-75
2021/06/13 12:55:36;;;;;;;8.82;5.72;;;20.10;67.00;;;;;;6121494;23;20002;-75
2021/06/13 12:58:04;;;;;;;6.88;5.93;;;20.10;66.80;;;;;;6120687;23;20097;-73
2021/06/13 13:00:34;;;;;;;8.85;6.35;;;20.20;66.80;;;;;;6121774;23;20026;-71
2021/06/13 13:03:09;;;;;;;6.10;5.53;;;20.10;66.70;;;;;;6122672;23;20373;-71
2021/06/13 13:05:37;;;;;;;6.65;5.85;;;20.20;66.60;;;;;;6121014;23;20090;-73
2021/06/13 13:08:14;;;;;;;6.75;5.50;;;20.20;66.60;;;;;;6122320;23;20010;-73
2021/06/13 13:10:41;;;;;;;8.32;6.10;;;20.20;66.70;;;;;;6121428;23;20008;-75
2021/06/13 13:13:07;;;;;;;9.75;6.57;;;20.20;66.60;;;;;;6122342;23;20002;-73
2021/06/13 13:15:40;;;;;;;6.43;5.78;;;20.20;66.30;;;;;;6121420;23;19997;-75
2021/06/13 13:18:15;;;;;;;10.07;5.53;;;20.20;66.30;;;;;;6121023;23;20430;-74